Time;durP1;ratioP1;P1;durP2;ratioP2;P2;SDS_P1;SDS_P2;PMS_P1;PMS_P2;Temp;Humidity;BMP_temperature;BMP_pressure;BME280_temperature;BME280_humidity;BME280_pressure;Samples;Min_cycle;Max_cycle;Signal;HPM_P1;HPM_P2
2023/04/10 00:00:16;;;;;;;3.55;0.90;;;;;;;13.04;100.00;101320.19;4991598;28;20112;-76
2023/04/10 00:02:45;;;;;;;2.53;0.70;;;;;;;13.08;100.00;101323.72;4984182;28;20712;-76
2023/04/10 00:05:13;;;;;;;3.17;1.40;;;;;;;13.06;100.00;101313.31;4983543;28;20042;-76
2023/04/10 00:07:42;;;;;;;2.00;0.85;;;;;;;13.09;100.00;101320.31;4988780;28;20405;-76
2023/04/10 00:10:11;;;;;;;1.00;0.63;;;;;;;13.12;100.00;101317.78;4985251;28;20054;-75
2023/04/10 00:12:40;;;;;;;3.42;1.20;;;;;;;13.12;100.00;101320.38;4988972;28;20448;-76
2023/04/10 00:15:09;;;;;;;4.40;1.98;;;;;;;13.14;100.00;101308.31;4987398;28;20058;-77
2023/04/10 00:17:40;;;;;;;2.33;0.88;;;;;;;13.14;100.00;101311.78;4985525;28;20624;-78
2023/04/10 00:20:09;;;;;;;1.33;0.57;;;;;;;13.16;100.00;101311.84;4987681;28;20408;-76
2023/04/10 00:22:38;;;;;;;1.75;0.57;;;;;;;13.15;100.00;101316.16;4987440;28;20919;-78
2023/04/10 00:25:07;;;;;;;1.95;1.73;;;;;;;13.13;100.00;101304.84;4988711;28;20145;-77
2023/04/10 00:27:36;;;;;;;1.30;0.65;;;;;;;13.19;100.00;101307.63;4982825;28;20058;-77
2023/04/10 00:30:05;;;;;;;1.83;0.60;;;;;;;13.20;100.00;101305.91;4983899;28;20246;-78
2023/04/10 00:32:33;;;;;;;2.35;0.98;;;;;;;13.20;100.00;101309.38;4988014;28;20046;-77
2023/04/10 00:35:04;;;;;;;0.95;0.68;;;;;;;13.17;100.00;101305.78;4985685;28;20132;-77
2023/04/10 00:37:32;;;;;;;1.58;0.95;;;;;;;13.20;100.00;101304.19;4982672;28;20047;-78
2023/04/10 00:40:01;;;;;;;1.58;0.70;;;;;;;13.25;100.00;101313.81;4983779;28;20046;-78
2023/04/10 00:42:29;;;;;;;4.65;1.02;;;;;;;13.27;100.00;101307.81;4986556;28;20627;-78
2023/04/10 00:44:58;;;;;;;1.90;1.00;;;;;;;13.23;100.00;101292.97;4982438;28;20053;-78
2023/04/10 00:47:28;;;;;;;1.40;0.70;;;;;;;13.23;100.00;101294.72;4987438;28;20061;-78
2023/04/10 00:49:56;;;;;;;3.20;0.77;;;;;;;13.28;100.00;101300.94;4983130;28;20061;-79
2023/04/10 00:52:27;;;;;;;1.90;1.15;;;;;;;13.30;100.00;101297.53;4971990;28;20049;-78
2023/04/10 00:54:56;;;;;;;2.22;0.80;;;;;;;13.27;100.00;101297.44;4989999;28;20050;-78
2023/04/10 00:57:25;;;;;;;2.53;1.20;;;;;;;13.24;100.00;101292.16;4989396;28;20799;-77
2023/04/10 00:59:54;;;;;;;1.92;0.70;;;;;;;13.29;100.00;101303.59;4984254;28;20046;-79
2023/04/10 01:02:23;;;;;;;3.65;0.90;;;;;;;13.33;100.00;101304.53;4988638;28;20065;-77
2023/04/10 01:04:52;;;;;;;4.32;0.80;;;;;;;13.34;100.00;101295.91;4986939;28;20081;-79
2023/04/10 01:07:36;;;;;;;1.63;0.80;;;;;;;13.40;100.00;101301.28;4973737;28;20046;-77
2023/04/10 01:10:14;;;;;;;2.13;0.80;;;;;;;13.39;100.00;101289.97;4987732;28;20058;-79
2023/04/10 01:12:59;;;;;;;1.65;0.55;;;;;;;13.42;100.00;101291.78;4987253;28;20050;-77
2023/04/10 01:15:31;;;;;;;0.75;0.70;;;;;;;13.41;100.00;101285.72;4987378;28;20054;-77
2023/04/10 01:18:05;;;;;;;2.85;0.80;;;;;;;13.45;100.00;101294.47;4986809;28;20075;-78
2023/04/10 01:20:38;;;;;;;4.30;0.80;;;;;;;13.47;100.00;101298.00;4983418;28;20050;-78
2023/04/10 01:23:48;;;;;;;6.28;0.88;;;;;;;13.48;100.00;101301.47;4978453;28;20085;-78
2023/04/10 01:26:33;;;;;;;1.77;0.98;;;;;;;13.38;100.00;101283.03;4954011;28;20095;-79
2023/04/10 01:29:08;;;;;;;4.63;0.80;;;;;;;13.49;100.00;101295.41;4984597;28;20102;-80
2023/04/10 01:31:43;;;;;;;1.75;0.70;;;;;;;13.53;100.00;101311.16;4992939;28;20062;-78
2023/04/10 01:34:17;;;;;;;0.90;0.57;;;;;;;13.55;100.00;101304.28;4982842;28;20046;-78
2023/04/10 01:36:50;;;;;;;3.35;0.95;;;;;;;13.58;100.00;101301.78;4991327;28;20042;-78
2023/04/10 01:39:21;;;;;;;1.40;0.80;;;;;;;13.58;100.00;101304.38;4989695;28;20103;-81
2023/04/10 01:41:53;;;;;;;0.90;0.60;;;;;;;13.54;100.00;101299.91;4990448;28;20050;-78
2023/04/10 01:44:27;;;;;;;0.95;0.80;;;;;;;13.59;100.00;101302.63;4987986;28;20059;-79
2023/04/10 01:47:05;;;;;;;2.15;0.88;;;;;;;13.60;100.00;101301.78;4981320;28;20053;-80
2023/04/10 01:49:36;;;;;;;1.83;0.60;;;;;;;13.65;100.00;101304.50;4989050;28;20066;-78
2023/04/10 01:52:07;;;;;;;1.40;0.73;;;;;;;13.67;100.00;101305.44;4981263;28;20058;-77
2023/04/10 01:54:37;;;;;;;2.75;1.00;;;;;;;13.68;100.00;101302.00;4987618;28;20268;-79
2023/04/10 01:57:06;;;;;;;1.60;0.95;;;;;;;13.53;100.00;101277.34;4986444;28;20057;-78
2023/04/10 01:59:38;;;;;;;1.45;0.70;;;;;;;13.69;100.00;101301.16;4991718;28;20137;-79
2023/04/10 02:02:07;;;;;;;2.60;1.35;;;;;;;13.67;100.00;101310.63;4987694;28;20050;-79
2023/04/10 02:04:35;;;;;;;2.80;0.88;;;;;;;13.65;100.00;101299.31;4988176;28;20097;-81
2023/04/10 02:07:05;;;;;;;1.60;0.85;;;;;;;13.67;100.00;101308.91;4980910;28;20050;-78
2023/04/10 02:09:44;;;;;;;1.75;0.90;;;;;;;13.66;100.00;101303.69;4989292;28;20042;-78
2023/04/10 02:12:19;;;;;;;2.33;1.08;;;;;;;13.66;100.00;101299.34;4989823;28;20097;-78
2023/04/10 02:14:51;;;;;;;2.00;1.13;;;;;;;13.64;100.00;101300.16;4979392;28;20514;-78
2023/04/10 02:17:27;;;;;;;2.57;1.00;;;;;;;13.71;100.00;101312.47;4987832;28;20058;-77
2023/04/10 02:19:57;;;;;;;2.35;0.85;;;;;;;13.70;100.00;101310.69;4982697;28;20300;-77
2023/04/10 02:22:27;;;;;;;2.47;0.85;;;;;;;13.69;100.00;101304.63;4987845;28;20054;-79
2023/04/10 02:24:55;;;;;;;1.83;0.98;;;;;;;13.69;100.00;101311.56;4990648;28;20061;-78
2023/04/10 02:27:31;;;;;;;1.85;0.85;;;;;;;13.68;100.00;101312.41;4990654;28;20057;-77
2023/04/10 02:30:02;;;;;;;1.58;1.27;;;;;;;13.66;100.00;101316.69;4991156;28;20123;-78
2023/04/10 02:32:32;;;;;;;4.38;0.90;;;;;;;13.62;100.00;101311.38;4986587;28;20141;-79
2023/04/10 02:35:01;;;;;;;1.75;0.60;;;;;;;13.61;100.00;101317.44;4993171;28;20058;-77
2023/04/10 02:37:29;;;;;;;2.63;1.00;;;;;;;13.59;100.00;101319.13;4991458;28;20050;-78
2023/04/10 02:39:58;;;;;;;8.18;1.77;;;;;;;13.57;100.00;101315.59;4987714;28;20523;-78
2023/04/10 02:42:26;;;;;;;3.67;1.35;;;;;;;13.55;100.00;101319.88;4990121;28;20069;-80
2023/04/10 02:44:55;;;;;;;3.45;1.60;;;;;;;13.53;100.00;101326.75;4983090;28;20081;-78
2023/04/10 02:47:25;;;;;;;3.65;1.85;;;;;;;13.53;100.00;101324.16;4976738;28;20065;-78
2023/04/10 02:49:54;;;;;;;2.95;1.10;;;;;;;13.48;100.00;101315.34;4992104;28;20054;-79
2023/04/10 02:52:23;;;;;;;3.85;1.13;;;;;;;13.52;100.00;101325.00;4987219;28;20050;-78
2023/04/10 02:54:51;;;;;;;2.78;1.38;;;;;;;13.49;100.00;101330.13;4984083;28;20102;-77
2023/04/10 02:57:20;;;;;;;2.15;1.05;;;;;;;13.46;100.00;101324.81;4985567;28;20505;-77
2023/04/10 02:59:51;;;;;;;2.97;1.10;;;;;;;13.46;100.00;101327.44;4987338;28;20512;-78
2023/04/10 03:02:20;;;;;;;1.40;0.85;;;;;;;13.48;100.00;101330.94;4985575;28;20057;-77
2023/04/10 03:04:53;;;;;;;2.67;1.52;;;;;;;13.46;100.00;101335.22;4986280;28;20504;-78
2023/04/10 03:07:21;;;;;;;3.50;1.42;;;;;;;13.46;100.00;101340.41;4987925;28;20138;-78
2023/04/10 03:09:50;;;;;;;3.35;1.17;;;;;;;13.43;100.00;101337.75;4987413;28;20050;-78
2023/04/10 03:12:19;;;;;;;3.53;1.33;;;;;;;13.38;100.00;101336.75;4986899;28;20050;-78
2023/04/10 03:14:48;;;;;;;3.65;0.93;;;;;;;13.36;100.00;101341.03;4987018;28;20061;-77
2023/04/10 03:17:16;;;;;;;1.88;1.08;;;;;;;13.33;100.00;101343.53;4988328;28;20051;-77
2023/04/10 03:19:45;;;;;;;2.88;0.95;;;;;;;13.36;100.00;101356.63;4988607;28;20054;-77
2023/04/10 03:22:15;;;;;;;2.55;0.95;;;;;;;13.36;100.00;101364.41;4987776;28;20065;-76
2023/04/10 03:24:44;;;;;;;3.00;1.58;;;;;;;13.34;100.00;101361.75;4983631;28;20051;-78
2023/04/10 03:27:13;;;;;;;3.45;1.10;;;;;;;13.36;100.00;101367.03;4986825;28;20050;-77
2023/04/10 03:29:42;;;;;;;3.30;1.08;;;;;;;13.36;100.00;101372.22;4990516;28;20046;-77
2023/04/10 03:32:11;;;;;;;1.98;1.17;;;;;;;13.37;100.00;101379.16;4979149;28;20054;-78
2023/04/10 03:34:40;;;;;;;5.63;1.10;;;;;;;13.36;100.00;101373.09;4988378;28;20081;-78
2023/04/10 03:37:18;;;;;;;1.98;1.00;;;;;;;13.33;100.00;101373.00;4982983;28;20065;-81
2023/04/10 03:39:50;;;;;;;2.13;1.08;;;;;;;13.18;100.00;101354.34;4979255;28;20492;-81
2023/04/10 03:42:19;;;;;;;3.60;0.73;;;;;;;13.25;100.00;101368.41;4981109;28;20130;-83
2023/04/10 03:44:50;;;;;;;2.55;1.65;;;;;;;13.38;100.00;101387.00;4988424;28;20050;-79
2023/04/10 03:47:18;;;;;;;2.63;0.90;;;;;;;13.24;100.00;101370.13;4993823;28;20065;-87
2023/04/10 03:49:58;;;;;;;1.38;0.93;;;;;;;13.40;100.00;101392.28;5005298;28;20050;-89
2023/04/10 03:52:34;;;;;;;1.63;1.05;;;;;;;13.40;100.00;101392.28;4991808;28;20050;-89
2023/04/10 03:55:52;;;;;;;2.00;1.00;;;;;;;13.13;100.00;101349.03;4991540;28;20128;-87
2023/04/10 03:58:39;;;;;;;1.63;0.80;;;;;;;13.34;100.00;101397.28;4988516;28;20054;-82
2023/04/10 04:04:16;;;;;;;0.85;0.60;;;;;;;13.20;100.00;101399.44;4972558;28;20054;-86
2023/04/10 04:06:51;;;;;;;1.65;0.95;;;;;;;13.06;100.00;101391.25;4987105;28;20046;-85
2023/04/10 04:09:21;;;;;;;2.85;0.90;;;;;;;13.15;100.00;101408.84;4981688;28;20053;-85
2023/04/10 04:11:50;;;;;;;1.45;0.85;;;;;;;13.16;100.00;101424.44;4989165;28;20057;-81
2023/04/10 04:14:24;;;;;;;1.27;0.73;;;;;;;13.12;100.00;101425.19;4984641;28;20062;-82
2023/04/10 04:16:53;;;;;;;4.50;1.02;;;;;;;13.05;100.00;101427.56;4990820;28;20074;-84
2023/04/10 04:19:22;;;;;;;1.70;0.70;;;;;;;13.02;100.00;101430.97;4989243;28;20050;-83
2023/04/10 04:22:02;;;;;;;;;;;;;;;;;;;;;
2023/04/10 04:24:33;;;;;;;1.45;0.90;;;;;;;13.01;100.00;101431.81;4987198;28;20871;-79
2023/04/10 04:27:01;;;;;;;3.10;0.90;;;;;;;13.00;100.00;101437.81;4986346;28;20054;-76
2023/04/10 04:29:30;;;;;;;2.15;0.95;;;;;;;13.02;100.00;101436.16;4983490;28;20069;-78
2023/04/10 04:31:59;;;;;;;2.10;0.88;;;;;;;13.03;100.00;101440.50;4986670;28;20459;-80
2023/04/10 04:34:27;;;;;;;2.70;1.00;;;;;;;13.01;100.00;101444.81;4985623;28;20061;-78
2023/04/10 04:36:56;;;;;;;3.25;1.10;;;;;;;13.03;100.00;101448.28;4983051;28;20095;-81
2023/04/10 04:39:31;;;;;;;1.20;0.80;;;;;;;13.03;100.00;101456.09;4986495;28;20050;-81
2023/04/10 04:42:10;;;;;;;2.53;0.90;;;;;;;12.97;100.00;101448.13;4986045;28;20050;-83
2023/04/10 04:44:45;;;;;;;1.33;0.85;;;;;;;13.04;100.00;101457.88;4985771;28;20058;-83
2023/04/10 04:47:14;;;;;;;3.28;0.77;;;;;;;13.02;100.00;101453.47;4982273;28;20525;-82
2023/04/10 04:49:43;;;;;;;3.35;0.80;;;;;;;13.01;100.00;101457.78;4984626;28;20528;-81
2023/04/10 04:52:11;;;;;;;2.53;0.80;;;;;;;12.99;100.00;101465.53;4977597;28;20109;-80
2023/04/10 04:54:40;;;;;;;0.90;0.55;;;;;;;12.97;100.00;101463.72;4982555;28;20038;-80
2023/04/10 04:57:10;;;;;;;7.30;0.73;;;;;;;12.97;100.00;101463.72;4977857;28;20046;-79
2023/04/10 04:59:39;;;;;;;2.20;0.80;;;;;;;12.99;100.00;101469.84;4981918;28;20051;-79
2023/04/10 05:02:07;;;;;;;1.05;0.80;;;;;;;12.95;100.00;101465.38;4989182;28;20042;-78
2023/04/10 05:04:36;;;;;;;0.88;0.57;;;;;;;13.02;100.00;101472.53;4985542;28;20057;-82
2023/04/10 05:07:04;;;;;;;1.00;0.57;;;;;;;13.06;100.00;101474.38;4990690;28;20050;-86
2023/04/10 05:09:33;;;;;;;1.52;0.80;;;;;;;13.10;100.00;101472.75;4986387;28;20046;-82
2023/04/10 05:12:02;;;;;;;1.95;0.60;;;;;;;13.11;100.00;101470.22;4987238;28;20042;-83
2023/04/10 05:14:33;;;;;;;3.97;0.60;;;;;;;13.10;100.00;101473.66;4985068;28;20132;-82
2023/04/10 05:17:06;;;;;;;0.73;0.50;;;;;;;13.13;100.00;101475.47;4982683;28;20149;-83
2023/04/10 05:19:34;;;;;;;0.60;0.50;;;;;;;13.14;100.00;101485.00;4979783;28;20057;-82
2023/04/10 05:22:03;;;;;;;0.98;0.50;;;;;;;13.17;100.00;101487.69;4982365;28;20050;-83
2023/04/10 05:24:31;;;;;;;0.80;0.50;;;;;;;13.16;100.00;101483.34;4976030;28;20170;-83
2023/04/10 05:27:00;;;;;;;1.52;0.85;;;;;;;13.11;100.00;101491.00;4984627;28;20050;-85
2023/04/10 05:29:29;;;;;;;1.20;0.80;;;;;;;13.09;100.00;101486.59;4984086;28;20047;-80
2023/04/10 05:31:59;;;;;;;0.90;0.50;;;;;;;13.02;100.00;101488.13;4988195;28;20105;-83
2023/04/10 05:34:28;;;;;;;1.35;0.82;;;;;;;13.02;100.00;101484.63;4986174;28;20078;-78
2023/04/10 05:36:56;;;;;;;0.70;0.47;;;;;;;12.99;100.00;101477.63;4983583;28;20077;-77
2023/04/10 05:39:25;;;;;;;1.70;0.55;;;;;;;12.95;100.00;101491.34;4991190;28;20653;-77
2023/04/10 05:41:54;;;;;;;0.80;0.60;;;;;;;12.88;100.00;101485.09;4986199;28;20046;-75
2023/04/10 05:44:22;;;;;;;1.02;0.55;;;;;;;12.89;100.00;101485.97;4983531;28;20057;-76
2023/04/10 05:46:51;;;;;;;1.25;0.75;;;;;;;12.87;100.00;101479.81;4982950;28;20046;-76
2023/04/10 05:49:21;;;;;;;0.80;0.55;;;;;;;12.90;100.00;101485.16;4987945;28;20058;-76
2023/04/10 05:51:56;;;;;;;1.17;0.55;;;;;;;12.89;100.00;101472.97;4985692;28;20112;-76
2023/04/10 05:54:25;;;;;;;0.77;0.60;;;;;;;12.89;100.00;101478.16;4985425;28;20055;-76
2023/04/10 05:56:53;;;;;;;0.85;0.55;;;;;;;12.91;100.00;101482.56;4985837;28;20054;-76
2023/04/10 05:59:22;;;;;;;3.03;0.60;;;;;;;12.89;100.00;101479.03;4995485;28;20100;-76
2023/04/10 06:01:51;;;;;;;1.25;0.75;;;;;;;12.87;100.00;101474.63;4982424;28;20052;-76
2023/04/10 06:04:22;;;;;;;1.77;0.70;;;;;;;12.85;100.00;101476.31;4982837;28;20141;-76
2023/04/10 06:06:50;;;;;;;1.58;0.75;;;;;;;12.84;100.00;101487.53;4992774;28;20089;-76
2023/04/10 06:09:19;;;;;;;1.63;0.70;;;;;;;12.84;100.00;101482.34;4990344;28;20060;-77
2023/04/10 06:11:47;;;;;;;1.05;0.60;;;;;;;12.86;100.00;101478.09;4987108;28;20050;-77
2023/04/10 06:14:16;;;;;;;1.05;0.80;;;;;;;12.82;100.00;101466.69;4985715;28;20055;-77
2023/04/10 06:16:44;;;;;;;1.65;0.77;;;;;;;12.81;100.00;101456.28;4993328;28;20046;-76
2023/04/10 06:19:13;;;;;;;3.05;1.15;;;;;;;12.77;100.00;101452.69;4992707;28;20042;-77
2023/04/10 06:21:43;;;;;;;2.28;1.13;;;;;;;12.74;100.00;101457.81;4992119;28;20745;-77
2023/04/10 06:24:12;;;;;;;1.38;0.95;;;;;;;12.70;100.00;101464.59;4989523;28;20049;-76
2023/04/10 06:26:41;;;;;;;2.38;1.30;;;;;;;12.75;100.00;101459.56;4982484;28;20121;-76
2023/04/10 06:29:09;;;;;;;2.45;1.60;;;;;;;12.76;100.00;101461.34;4989493;28;20077;-77
2023/04/10 06:31:38;;;;;;;2.92;1.40;;;;;;;12.78;100.00;101464.84;4990148;28;20080;-76
2023/04/10 06:34:06;;;;;;;1.10;0.73;;;;;;;12.79;100.00;101464.00;4985638;28;20108;-77
2023/04/10 06:36:35;;;;;;;1.48;0.98;;;;;;;12.80;100.00;101460.56;4988366;28;20053;-77
2023/04/10 06:39:06;;;;;;;1.75;0.85;;;;;;;12.77;100.00;101450.97;4994212;28;20078;-77
2023/04/10 06:41:34;;;;;;;1.25;0.85;;;;;;;12.78;100.00;101454.44;4991475;28;20061;-78
2023/04/10 06:44:03;;;;;;;2.00;0.90;;;;;;;12.78;100.00;101447.56;4986342;28;20503;-78
2023/04/10 06:46:32;;;;;;;1.08;0.98;;;;;;;12.77;100.00;101450.09;4992027;28;20488;-77
2023/04/10 06:49:00;;;;;;;1.30;0.73;;;;;;;12.82;100.00;101455.44;4980803;28;20141;-77
2023/04/10 06:51:29;;;;;;;1.33;0.70;;;;;;;12.79;100.00;101446.72;4987009;28;20133;-77
2023/04/10 06:53:57;;;;;;;1.67;1.13;;;;;;;12.76;100.00;101444.03;4987822;28;20053;-78
2023/04/10 06:56:27;;;;;;;1.70;1.00;;;;;;;12.77;100.00;101443.19;4983607;28;20054;-77
2023/04/10 06:58:56;;;;;;;2.60;0.93;;;;;;;12.76;100.00;101437.97;4990828;28;20050;-78
2023/04/10 07:01:25;;;;;;;1.10;0.90;;;;;;;12.77;100.00;101438.00;4989379;28;20137;-77
2023/04/10 07:03:53;;;;;;;1.95;0.80;;;;;;;12.79;100.00;101431.13;4982494;28;20109;-78
2023/04/10 07:06:22;;;;;;;1.27;0.98;;;;;;;12.77;100.00;101421.53;4985935;28;20117;-76
2023/04/10 07:08:51;;;;;;;2.15;1.00;;;;;;;12.82;100.00;101427.75;4980865;28;20054;-77
2023/04/10 07:11:19;;;;;;;1.88;0.93;;;;;;;12.83;100.00;101423.44;4989558;28;20047;-77
2023/04/10 07:13:52;;;;;;;1.98;1.10;;;;;;;12.79;100.00;101425.06;4989498;28;20113;-77
2023/04/10 07:16:20;;;;;;;1.65;1.00;;;;;;;12.77;100.00;101429.31;4985757;28;20117;-78
2023/04/10 07:18:49;;;;;;;1.00;0.70;;;;;;;12.77;100.00;101427.59;4986584;28;20053;-77
2023/04/10 07:21:17;;;;;;;1.00;0.82;;;;;;;12.70;100.00;101404.88;4986283;28;20058;-78
2023/04/10 07:23:46;;;;;;;5.35;1.20;;;;;;;12.80;100.00;101413.81;4987981;28;20054;-77
2023/04/10 07:26:15;;;;;;;1.08;0.80;;;;;;;12.78;100.00;101403.41;4985618;28;20689;-77
2023/04/10 07:28:43;;;;;;;2.80;1.00;;;;;;;12.82;100.00;101408.69;4992871;28;20504;-77
2023/04/10 07:31:14;;;;;;;1.10;0.90;;;;;;;12.81;100.00;101404.34;4989539;28;20496;-77
2023/04/10 07:33:42;;;;;;;1.40;0.93;;;;;;;12.80;100.00;101400.84;4985894;28;20062;-77
2023/04/10 07:36:11;;;;;;;1.50;0.98;;;;;;;12.80;100.00;101400.84;4988362;28;20050;-77
2023/04/10 07:38:39;;;;;;;3.00;1.30;;;;;;;12.81;100.00;101397.44;4978417;28;20038;-76
2023/04/10 07:41:08;;;;;;;1.73;1.05;;;;;;;12.82;100.00;101403.50;4988794;28;20113;-77
2023/04/10 07:43:37;;;;;;;1.17;0.88;;;;;;;12.81;100.00;101396.56;4985399;28;20050;-76
2023/04/10 07:46:05;;;;;;;1.23;0.85;;;;;;;12.78;100.00;101402.50;4989483;28;20471;-77
2023/04/10 07:48:36;;;;;;;3.78;1.13;;;;;;;12.76;100.00;101401.59;4988810;28;20647;-77
2023/04/10 07:51:07;;;;;;;1.85;1.05;;;;;;;12.78;100.00;101400.81;4994217;28;20121;-77
2023/04/10 07:53:36;;;;;;;1.38;0.90;;;;;;;12.74;100.00;101396.34;4990538;28;20050;-76
2023/04/10 07:56:05;;;;;;;2.08;1.08;;;;;;;12.74;100.00;101401.56;4989860;28;20101;-75
2023/04/10 07:58:34;;;;;;;1.60;0.90;;;;;;;12.67;100.00;101393.53;4987749;28;20050;-76
2023/04/10 08:01:04;;;;;;;1.58;0.98;;;;;;;12.62;100.00;101392.47;4982694;28;20057;-76
2023/04/10 08:03:38;;;;;;;1.73;0.93;;;;;;;12.55;100.00;101394.00;4988685;28;20472;-77
2023/04/10 08:06:09;;;;;;;1.10;0.70;;;;;;;12.53;100.00;101400.88;4982550;28;20047;-77
2023/04/10 08:08:38;;;;;;;2.15;1.00;;;;;;;12.54;100.00;101397.44;4985187;28;20061;-77
2023/04/10 08:11:22;;;;;;;1.10;0.73;;;;;;;12.57;100.00;101398.44;4978675;28;20717;-76
2023/04/10 08:13:50;;;;;;;4.88;1.02;;;;;;;12.58;100.00;101397.59;4972001;28;20081;-76
2023/04/10 08:16:20;;;;;;;1.63;0.95;;;;;;;12.55;100.00;101387.13;4977570;28;20045;-77
2023/04/10 08:18:48;;;;;;;0.90;0.70;;;;;;;12.53;100.00;101380.13;4980436;28;20595;-77
2023/04/10 08:21:18;;;;;;;1.25;0.95;;;;;;;12.56;100.00;101383.69;4983034;28;20065;-76
2023/04/10 08:23:47;;;;;;;1.02;0.73;;;;;;;12.58;100.00;101386.34;4985388;28;20528;-77
2023/04/10 08:26:15;;;;;;;0.95;0.75;;;;;;;12.59;100.00;101388.06;4987592;28;20500;-77
2023/04/10 08:28:46;;;;;;;1.38;0.93;;;;;;;12.61;100.00;101393.34;4989808;28;20742;-76
2023/04/10 08:31:14;;;;;;;1.25;0.80;;;;;;;12.62;100.00;101390.78;4986541;28;20142;-77
2023/04/10 08:33:43;;;;;;;2.20;1.05;;;;;;;12.63;100.00;101381.28;4987175;28;20046;-76
2023/04/10 08:36:14;;;;;;;1.42;0.95;;;;;;;12.66;100.00;101381.38;4987112;28;20487;-77
2023/04/10 08:38:44;;;;;;;0.90;0.70;;;;;;;12.66;100.00;101383.97;4985957;28;20054;-76
2023/04/10 08:41:14;;;;;;;1.00;0.90;;;;;;;12.64;100.00;101380.44;4989087;28;20078;-76
2023/04/10 08:43:44;;;;;;;2.25;0.32;;;;;;;12.60;100.00;101371.69;4987047;28;20038;-76
2023/04/10 08:46:13;;;;;;;0.50;0.30;;;;;;;12.55;100.00;101368.94;4988672;28;20206;-76
2023/04/10 08:48:46;;;;;;;0.32;0.15;;;;;;;12.51;100.00;101368.81;4986257;28;20052;-76
2023/04/10 08:51:19;;;;;;;0.17;0.10;;;;;;;12.44;100.00;101357.34;4982995;28;20686;-77
2023/04/10 08:53:54;;;;;;;0.20;0.10;;;;;;;12.41;100.00;101367.63;4988684;28;20053;-76
2023/04/10 08:56:24;;;;;;;0.10;0.10;;;;;;;12.36;100.00;101366.59;4985273;28;20078;-77
2023/04/10 08:58:53;;;;;;;0.38;0.15;;;;;;;12.32;100.00;101365.63;4979225;28;20125;-77
2023/04/10 09:01:22;;;;;;;0.00;0.00;;;;;;;12.29;100.00;101365.50;4990952;28;20057;-76
2023/04/10 09:03:51;;;;;;;3.03;0.10;;;;;;;12.27;100.00;101369.75;4979458;28;20046;-77
2023/04/10 09:06:19;;;;;;;0.20;0.15;;;;;;;12.24;100.00;101359.31;4987998;28;20058;-77
2023/04/10 09:08:49;;;;;;;0.00;0.00;;;;;;;12.19;100.00;101360.88;4982658;28;20057;-77
2023/04/10 09:11:18;;;;;;;0.20;0.10;;;;;;;12.13;100.00;101352.88;4984351;28;20496;-76
2023/04/10 09:13:47;;;;;;;0.32;0.10;;;;;;;12.11;100.00;101346.75;4978121;28;20108;-77
2023/04/10 09:16:15;;;;;;;0.10;0.10;;;;;;;12.09;100.00;101341.50;4984299;28;20691;-76
2023/04/10 09:18:46;;;;;;;0.10;0.10;;;;;;;12.08;100.00;101341.47;4984220;28;20098;-77
2023/04/10 09:21:17;;;;;;;0.05;0.05;;;;;;;12.04;100.00;101339.59;4985306;28;20129;-77
2023/04/10 09:23:47;;;;;;;0.93;0.10;;;;;;;12.00;100.00;101330.84;4985970;28;20054;-76
2023/04/10 09:26:27;;;;;;;0.75;0.30;;;;;;;11.97;100.00;101329.88;4986225;28;20133;-76
2023/04/10 09:29:01;;;;;;;0.00;0.00;;;;;;;11.97;100.00;101324.69;4986635;28;20050;-76
2023/04/10 09:31:31;;;;;;;1.80;0.20;;;;;;;11.90;100.00;101324.47;4986917;28;20109;-76
2023/04/10 09:34:13;;;;;;;0.10;0.10;;;;;;;11.89;100.00;101316.66;4985798;28;20104;-77
2023/04/10 09:36:42;;;;;;;0.10;0.10;;;;;;;11.87;100.00;101303.63;4980559;28;20157;-76
2023/04/10 09:39:13;;;;;;;0.10;0.10;;;;;;;11.83;100.00;101301.72;4990004;28;20105;-76
2023/04/10 09:41:51;;;;;;;0.20;0.10;;;;;;;11.83;100.00;101295.66;4988601;28;20055;-76
2023/04/10 09:44:29;;;;;;;0.10;0.00;;;;;;;11.81;100.00;101293.00;4986196;28;20065;-76
2023/04/10 09:46:57;;;;;;;0.20;0.10;;;;;;;11.80;100.00;101282.63;4983631;28;20051;-76
2023/04/10 09:49:47;;;;;;;0.10;0.08;;;;;;;11.78;100.00;101271.31;4983745;28;20063;-76
2023/04/10 09:52:29;;;;;;;0.00;0.00;;;;;;;11.75;100.00;101264.31;4988740;28;20073;-77
2023/04/10 09:54:58;;;;;;;0.08;0.00;;;;;;;11.68;100.00;101259.72;4987629;28;20121;-77
2023/04/10 09:57:30;;;;;;;0.05;0.00;;;;;;;11.66;100.00;101269.16;4980962;28;20619;-76
2023/04/10 10:00:00;;;;;;;0.10;0.10;;;;;;;11.64;100.00;101268.25;4989136;28;20105;-77
2023/04/10 10:02:30;;;;;;;0.20;0.20;;;;;;;11.65;100.00;101275.19;4989791;28;20093;-77
2023/04/10 10:05:01;;;;;;;0.38;0.10;;;;;;;11.61;100.00;101278.50;4985730;28;20497;-77
2023/04/10 10:07:32;;;;;;;0.10;0.10;;;;;;;11.59;100.00;101280.16;4985022;28;20142;-77
2023/04/10 10:10:02;;;;;;;0.00;0.00;;;;;;;11.57;100.00;101277.53;4981108;28;20055;-77
2023/04/10 10:12:41;;;;;;;0.28;0.17;;;;;;;11.56;100.00;101277.47;4983472;28;20050;-77
2023/04/10 10:15:15;;;;;;;0.00;0.00;;;;;;;11.55;100.00;101273.13;4973662;28;20047;-76
2023/04/10 10:17:48;;;;;;;0.20;0.20;;;;;;;11.56;100.00;101277.47;4979881;28;20416;-76
2023/04/10 10:20:21;;;;;;;0.10;0.10;;;;;;;11.53;100.00;101281.72;4984507;28;20046;-77
2023/04/10 10:22:51;;;;;;;0.10;0.10;;;;;;;11.53;100.00;101280.84;4983703;28;20074;-77
2023/04/10 10:25:20;;;;;;;0.30;0.15;;;;;;;11.53;100.00;101279.13;4981177;28;20133;-76
2023/04/10 10:27:52;;;;;;;0.10;0.10;;;;;;;11.53;100.00;101275.66;4984815;28;20404;-77
2023/04/10 10:30:22;;;;;;;0.17;0.13;;;;;;;11.52;100.00;101271.28;4988565;28;20046;-76
2023/04/10 10:32:51;;;;;;;0.10;0.10;;;;;;;11.41;100.00;101260.59;4980995;28;20043;-77
2023/04/10 10:35:20;;;;;;;0.05;0.05;;;;;;;11.35;100.00;101267.25;4988088;28;20050;-77
2023/04/10 10:37:49;;;;;;;0.00;0.00;;;;;;;11.32;100.00;101265.47;4984471;28;20524;-76
2023/04/10 10:40:23;;;;;;;0.50;0.20;;;;;;;11.30;100.00;101269.69;4982433;28;20051;-76
2023/04/10 10:43:01;;;;;;;0.25;0.15;;;;;;;11.29;100.00;101260.16;4984867;28;20054;-76
2023/04/10 10:45:35;;;;;;;0.77;0.25;;;;;;;11.28;100.00;101258.41;4990089;28;20050;-76
2023/04/10 10:48:03;;;;;;;0.25;0.20;;;;;;;11.30;100.00;101256.75;4990272;28;20050;-76
2023/04/10 10:50:56;;;;;;;0.40;0.20;;;;;;;11.31;100.00;101246.44;4988354;28;20661;-76
2023/04/10 10:53:39;;;;;;;0.10;0.10;;;;;;;11.30;100.00;101233.44;4986433;28;20516;-76
2023/04/10 10:56:36;;;;;;;0.70;0.25;;;;;;;11.20;100.00;101223.56;4987111;28;20053;-76
2023/04/10 10:59:06;;;;;;;0.25;0.20;;;;;;;11.28;100.00;101237.69;4990962;28;20488;-75
2023/04/10 11:01:35;;;;;;;0.40;0.20;;;;;;;11.26;100.00;101232.44;4988748;28;20551;-76
2023/04/10 11:04:34;;;;;;;0.00;0.00;;;;;;;11.26;100.00;101224.66;4988521;28;20046;-76
2023/04/10 11:07:02;;;;;;;0.90;0.32;;;;;;;11.29;100.00;101213.53;4987928;28;20990;-77
2023/04/10 11:09:48;;;;;;;1.55;0.20;;;;;;;11.29;100.00;101214.44;4987713;28;20524;-76
2023/04/10 11:12:17;;;;;;;0.82;0.28;;;;;;;11.31;100.00;101204.09;4989954;28;20073;-76
2023/04/10 11:14:58;;;;;;;0.30;0.22;;;;;;;11.29;100.00;101204.06;4988937;28;20558;-75
2023/04/10 11:17:48;;;;;;;0.20;0.17;;;;;;;11.29;100.00;101201.47;4986434;28;20046;-76
2023/04/10 11:20:19;;;;;;;0.38;0.20;;;;;;;11.28;100.00;101196.22;4985978;28;20050;-76
2023/04/10 11:23:12;;;;;;;1.13;0.20;;;;;;;11.21;100.00;101178.72;4991444;28;20559;-76
2023/04/10 11:25:51;;;;;;;0.77;0.20;;;;;;;11.19;100.00;101186.44;4986080;28;20535;-75
2023/04/10 11:28:39;;;;;;;0.17;0.10;;;;;;;11.13;100.00;101182.75;4980738;28;20054;-76
2023/04/10 11:31:23;;;;;;;1.98;0.10;;;;;;;11.14;100.00;101187.13;4990703;28;20128;-75
2023/04/10 11:34:02;;;;;;;0.60;0.17;;;;;;;11.13;100.00;101180.16;4980928;28;20049;-76
2023/04/10 11:36:31;;;;;;;0.15;0.15;;;;;;;11.12;100.00;101179.28;4988435;28;20054;-76
2023/04/10 11:39:01;;;;;;;0.73;0.10;;;;;;;11.08;100.00;101173.09;4982608;28;20065;-75
2023/04/10 11:41:30;;;;;;;0.15;0.15;;;;;;;11.08;100.00;101177.41;4993019;28;20058;-75